Time;durP1;ratioP1;P1;durP2;ratioP2;P2;SDS_P1;SDS_P2;PMS_P1;PMS_P2;Temp;Humidity;BMP_temperature;BMP_pressure;BME280_temperature;BME280_humidity;BME280_pressure;Samples;Min_cycle;Max_cycle;Signal;HPM_P1;HPM_P2
2022/07/24 00:09:54;;;;;;;;;;;19.50;99.90;;;;;;8389353;28;19958;-68
2022/07/24 00:13:56;;;;;;;;;;;19.40;99.90;;;;;;8382589;28;19925;-68
2022/07/24 00:17:57;;;;;;;;;;;19.40;99.90;;;;;;8381895;28;19935;-68
2022/07/24 00:22:01;;;;;;;;;;;19.40;99.90;;;;;;8384275;28;19921;-68
2022/07/24 00:26:03;;;;;;;;;;;19.40;99.90;;;;;;8394180;28;19924;-68
2022/07/24 00:30:05;;;;;;;;;;;19.30;99.90;;;;;;8375878;28;20437;-68
2022/07/24 00:34:07;;;;;;;;;;;19.30;99.90;;;;;;8378533;28;19933;-68
2022/07/24 00:38:08;;;;;;;;;;;19.30;99.90;;;;;;8395251;28;19999;-68
2022/07/24 00:42:10;;;;;;;;;;;19.30;99.90;;;;;;8369177;28;19931;-68
2022/07/24 00:46:11;;;;;;;;;;;19.20;99.90;;;;;;8387095;28;19924;-68
2022/07/24 00:50:13;;;;;;;;;;;19.20;99.90;;;;;;8389917;28;19973;-68
2022/07/24 00:54:15;;;;;;;;;;;19.10;99.90;;;;;;8391173;28;19951;-68
2022/07/24 00:58:17;;;;;;;;;;;19.10;99.90;;;;;;8391768;28;19920;-68
2022/07/24 01:02:19;;;;;;;;;;;19.00;99.90;;;;;;8382725;28;19921;-68
2022/07/24 01:06:21;;;;;;;;;;;19.00;99.90;;;;;;8378938;28;19920;-68
2022/07/24 01:10:22;;;;;;;;;;;19.00;99.90;;;;;;8385419;28;19920;-68
2022/07/24 01:14:24;;;;;;;;;;;18.90;99.90;;;;;;8387373;28;19920;-68
2022/07/24 01:18:26;;;;;;;;;;;18.90;99.90;;;;;;8386541;28;19921;-68
2022/07/24 01:22:28;;;;;;;;;;;18.80;99.90;;;;;;8369798;28;19931;-68
2022/07/24 01:26:29;;;;;;;;;;;18.80;99.90;;;;;;8388427;28;19931;-68
2022/07/24 01:30:31;;;;;;;;;;;18.80;99.90;;;;;;8387660;28;19922;-68
2022/07/24 01:34:33;;;;;;;;;;;18.80;99.90;;;;;;8377790;28;19920;-68
2022/07/24 01:38:34;;;;;;;;;;;18.70;99.90;;;;;;8365500;28;19920;-68
2022/07/24 01:42:36;;;;;;;;;;;18.70;99.90;;;;;;8390336;28;19920;-68
2022/07/24 01:46:38;;;;;;;;;;;18.60;99.90;;;;;;8393148;28;19933;-68
2022/07/24 01:50:39;;;;;;;;;;;18.60;99.90;;;;;;8378809;28;20363;-68
2022/07/24 01:54:41;;;;;;;;;;;18.60;99.90;;;;;;8378973;28;19927;-68
2022/07/24 01:58:43;;;;;;;;;;;18.60;99.90;;;;;;8385426;28;20387;-68
2022/07/24 02:02:44;;;;;;;;;;;18.50;99.90;;;;;;8384490;28;19920;-68
2022/07/24 02:06:46;;;;;;;;;;;18.40;99.90;;;;;;8388382;28;19920;-68
2022/07/24 02:10:48;;;;;;;;;;;18.40;99.90;;;;;;8390487;28;19924;-68
2022/07/24 02:14:49;;;;;;;;;;;18.30;99.90;;;;;;8365929;28;19928;-68
2022/07/24 02:18:51;;;;;;;;;;;18.30;99.90;;;;;;8384177;28;19920;-68
2022/07/24 02:22:53;;;;;;;;;;;18.20;99.90;;;;;;8375666;28;19928;-68
2022/07/24 02:26:55;;;;;;;;;;;18.20;99.90;;;;;;8380896;28;19920;-68
2022/07/24 02:31:01;;;;;;;;;;;18.10;99.90;;;;;;8388212;28;20287;-68
2022/07/24 02:35:03;;;;;;;;;;;18.10;99.90;;;;;;8390893;28;20272;-68
2022/07/24 02:39:07;;;;;;;;;;;18.10;99.90;;;;;;8381511;28;19981;-68
2022/07/24 02:43:09;;;;;;;;;;;18.00;99.90;;;;;;8398808;28;19928;-68
2022/07/24 02:47:11;;;;;;;;;;;18.00;99.90;;;;;;8394853;28;19933;-68
2022/07/24 02:51:12;;;;;;;;;;;18.00;99.90;;;;;;8382077;28;19940;-68
2022/07/24 02:55:17;;;;;;;;;;;18.00;99.90;;;;;;8399706;28;19920;-68
2022/07/24 02:59:19;;;;;;;;;;;18.00;99.90;;;;;;8398324;28;19920;-68
2022/07/24 03:03:20;;;;;;;;;;;18.00;99.90;;;;;;8415044;28;19939;-68
2022/07/24 03:07:22;;;;;;;;;;;17.90;99.90;;;;;;8392452;28;19920;-68
2022/07/24 03:11:24;;;;;;;;;;;17.90;99.90;;;;;;8395953;28;20351;-68
2022/07/24 03:15:25;;;;;;;;;;;17.90;99.90;;;;;;8375771;28;20303;-68
2022/07/24 03:19:27;;;;;;;;;;;17.80;99.90;;;;;;8389059;28;19920;-68
2022/07/24 03:23:29;;;;;;;;;;;17.80;99.90;;;;;;8417142;28;19924;-68
2022/07/24 03:27:31;;;;;;;;;;;17.80;99.90;;;;;;8396341;28;19928;-68
2022/07/24 03:31:32;;;;;;;;;;;17.70;99.90;;;;;;8390536;28;19928;-68
2022/07/24 03:35:34;;;;;;;;;;;17.70;99.90;;;;;;8373980;28;20386;-68
2022/07/24 03:39:36;;;;;;;;;;;17.60;99.90;;;;;;8388393;28;19943;-68
2022/07/24 03:43:37;;;;;;;;;;;17.60;99.90;;;;;;8383004;28;19928;-68
2022/07/24 03:47:39;;;;;;;;;;;17.60;99.90;;;;;;8387056;28;19927;-68
2022/07/24 03:51:41;;;;;;;;;;;17.50;99.90;;;;;;8388870;28;19940;-68
2022/07/24 03:55:42;;;;;;;;;;;17.50;99.90;;;;;;8357027;28;19927;-68
2022/07/24 03:59:44;;;;;;;;;;;17.50;99.90;;;;;;8394174;28;20368;-68
2022/07/24 04:03:46;;;;;;;;;;;17.50;99.90;;;;;;8393040;28;20375;-68
2022/07/24 04:07:47;;;;;;;;;;;17.50;99.90;;;;;;8371818;28;19928;-68
2022/07/24 04:11:49;;;;;;;;;;;17.50;99.90;;;;;;8397131;28;19927;-68
2022/07/24 04:15:51;;;;;;;;;;;17.40;99.90;;;;;;8380098;28;20299;-68
2022/07/24 04:19:52;;;;;;;;;;;17.40;99.90;;;;;;8383017;28;19927;-68
2022/07/24 04:23:54;;;;;;;;;;;17.40;99.90;;;;;;8386898;28;19920;-68
2022/07/24 04:27:56;;;;;;;;;;;17.40;99.90;;;;;;8387020;28;19925;-68
2022/07/24 04:31:58;;;;;;;;;;;17.40;99.90;;;;;;8391527;28;19921;-68
2022/07/24 04:35:59;;;;;;;;;;;17.30;99.90;;;;;;8378253;28;20336;-68
2022/07/24 04:40:01;;;;;;;;;;;17.30;99.90;;;;;;8378630;28;19935;-68
2022/07/24 04:44:03;;;;;;;;;;;17.40;99.90;;;;;;8393310;28;20026;-68
2022/07/24 04:48:05;;;;;;;;;;;17.40;99.90;;;;;;8392888;28;19921;-68
2022/07/24 04:52:06;;;;;;;;;;;17.50;99.90;;;;;;8394109;28;19927;-68
2022/07/24 04:56:08;;;;;;;;;;;17.50;99.90;;;;;;8387448;28;19920;-68
2022/07/24 05:00:11;;;;;;;;;;;17.50;99.90;;;;;;8394197;28;20244;-68
2022/07/24 05:04:13;;;;;;;;;;;17.60;99.90;;;;;;8392389;28;19920;-68
2022/07/24 05:08:15;;;;;;;;;;;17.60;99.90;;;;;;8394022;28;19927;-68
2022/07/24 05:12:17;;;;;;;;;;;17.70;99.90;;;;;;8380909;28;19920;-68
2022/07/24 05:16:18;;;;;;;;;;;17.80;99.90;;;;;;8405039;28;19920;-68
2022/07/24 05:20:20;;;;;;;;;;;17.80;99.90;;;;;;8385511;28;19951;-68
2022/07/24 05:24:24;;;;;;;;;;;17.90;99.90;;;;;;8370362;28;19943;-68
2022/07/24 05:28:26;;;;;;;;;;;18.00;99.90;;;;;;8389235;28;19920;-68
2022/07/24 05:32:27;;;;;;;;;;;18.20;99.90;;;;;;8386881;28;20291;-68
2022/07/24 05:36:29;;;;;;;;;;;18.30;99.90;;;;;;8375355;28;20272;-68
2022/07/24 05:40:31;;;;;;;;;;;18.40;99.90;;;;;;8387010;28;19952;-68
2022/07/24 05:44:32;;;;;;;;;;;18.50;99.90;;;;;;8374678;28;20381;-68
2022/07/24 05:48:34;;;;;;;;;;;18.60;99.90;;;;;;8391645;28;19935;-68
2022/07/24 05:52:36;;;;;;;;;;;18.70;99.90;;;;;;8354394;28;19924;-68
2022/07/24 05:56:38;;;;;;;;;;;18.80;99.90;;;;;;8353045;28;19928;-68
2022/07/24 06:00:39;;;;;;;;;;;18.90;99.90;;;;;;8352505;28;19920;-68
2022/07/24 06:04:41;;;;;;;;;;;19.00;99.90;;;;;;8352155;28;19936;-68
2022/07/24 06:08:45;;;;;;;;;;;19.10;99.90;;;;;;8349834;28;19921;-68
2022/07/24 06:12:46;;;;;;;;;;;19.20;99.90;;;;;;8353704;28;20372;-68
2022/07/24 06:16:48;;;;;;;;;;;19.30;99.90;;;;;;8335315;28;19952;-68
2022/07/24 06:20:50;;;;;;;;;;;19.40;99.90;;;;;;8353834;28;19929;-68
2022/07/24 06:24:51;;;;;;;;;;;19.50;99.90;;;;;;8353386;28;19963;-68
2022/07/24 06:28:53;;;;;;;;;;;19.60;99.90;;;;;;8350926;28;19921;-68
2022/07/24 06:37:59;;;;;;;;;;;19.80;99.90;;;;;;8351330;28;20360;-68
2022/07/24 06:42:01;;;;;;;;;;;19.90;99.90;;;;;;8352031;28;20343;-68
2022/07/24 06:46:02;;;;;;;;;;;20.00;99.90;;;;;;8351036;28;19932;-68
2022/07/24 06:50:04;;;;;;;;;;;20.00;99.90;;;;;;8349355;28;19920;-68
2022/07/24 06:54:06;;;;;;;;;;;20.10;99.90;;;;;;8351059;28;19921;-68
2022/07/24 06:58:08;;;;;;;;;;;20.20;99.90;;;;;;8352240;28;19936;-68
2022/07/24 07:02:09;;;;;;;;;;;20.30;99.90;;;;;;8351488;28;19932;-68
2022/07/24 07:06:11;;;;;;;;;;;20.30;99.90;;;;;;8357222;28;20020;-68
2022/07/24 07:10:12;;;;;;;;;;;20.40;99.90;;;;;;8359334;28;19921;-68
2022/07/24 07:14:14;;;;;;;;;;;20.50;99.90;;;;;;8373505;28;19928;-68
2022/07/24 07:18:16;;;;;;;;;;;20.60;99.90;;;;;;8356088;28;19940;-68
2022/07/24 07:22:17;;;;;;;;;;;20.60;99.90;;;;;;8358141;28;19927;-68
2022/07/24 07:26:19;;;;;;;;;;;20.70;99.90;;;;;;8358121;28;19920;-68
2022/07/24 07:30:21;;;;;;;;;;;20.80;99.90;;;;;;8354009;28;19921;-68
2022/07/24 07:34:23;;;;;;;;;;;20.90;99.90;;;;;;8356560;28;19921;-68
2022/07/24 07:38:24;;;;;;;;;;;21.00;99.90;;;;;;8370802;28;19921;-68
2022/07/24 07:42:27;;;;;;;;;;;21.10;99.90;;;;;;8356719;28;19940;-68
2022/07/24 07:46:29;;;;;;;;;;;21.10;99.90;;;;;;8359721;28;19924;-68
2022/07/24 07:50:31;;;;;;;;;;;21.20;99.90;;;;;;8357063;28;19990;-68
2022/07/24 07:54:33;;;;;;;;;;;21.30;99.90;;;;;;8358956;28;19931;-68
2022/07/24 08:03:37;;;;;;;;;;;21.40;99.90;;;;;;8354391;28;19931;-68
2022/07/24 08:07:39;;;;;;;;;;;21.60;99.90;;;;;;8371199;28;19927;-67
2022/07/24 08:11:41;;;;;;;;;;;21.70;99.90;;;;;;8357224;28;20284;-68
2022/07/24 08:15:42;;;;;;;;;;;21.70;99.90;;;;;;8355464;28;19947;-68
2022/07/24 08:19:45;;;;;;;;;;;21.70;99.90;;;;;;8370400;28;19933;-68
2022/07/24 08:23:48;;;;;;;;;;;21.70;99.90;;;;;;8357027;28;19928;-68
2022/07/24 08:27:50;;;;;;;;;;;21.70;99.90;;;;;;8356461;28;19925;-68
2022/07/24 08:31:51;;;;;;;;;;;21.70;99.90;;;;;;8355079;28;20310;-68
2022/07/24 08:41:32;;;;;;;;;;;21.90;99.90;;;;;;8353879;28;19935;-68
2022/07/24 08:45:34;;;;;;;;;;;22.00;99.90;;;;;;8370975;28;19928;-68
2022/07/24 08:49:36;;;;;;;;;;;22.10;99.90;;;;;;8353531;28;20372;-68
2022/07/24 08:53:38;;;;;;;;;;;22.20;99.90;;;;;;8359056;28;20000;-68
2022/07/24 08:57:40;;;;;;;;;;;22.30;99.90;;;;;;8354143;28;19924;-67
2022/07/24 09:01:41;;;;;;;;;;;22.40;99.90;;;;;;8371289;28;19925;-68
2022/07/24 09:05:56;;;;;;;;;;;22.50;99.90;;;;;;8352414;28;19927;-67
2022/07/24 09:10:08;;;;;;;;;;;22.60;99.90;;;;;;8353998;28;19920;-68
2022/07/24 09:18:31;;;;;;;;;;;22.80;99.90;;;;;;8353145;28;20007;-68
2022/07/24 09:22:34;;;;;;;;;;;22.80;99.90;;;;;;8354172;28;19925;-68
2022/07/24 09:26:44;;;;;;;;;;;23.00;99.90;;;;;;8352174;28;20018;-68
2022/07/24 09:30:47;;;;;;;;;;;23.00;99.90;;;;;;8352568;28;19924;-68
2022/07/24 09:34:53;;;;;;;;;;;23.20;99.90;;;;;;8353409;28;20362;-68
2022/07/24 09:38:56;;;;;;;;;;;23.20;99.90;;;;;;8350016;28;19940;-67
2022/07/24 09:43:16;;;;;;;;;;;23.30;99.90;;;;;;8354351;28;19924;-68
2022/07/24 09:47:18;;;;;;;;;;;23.40;99.90;;;;;;8353622;28;19931;-68
2022/07/24 09:51:20;;;;;;;;;;;23.40;99.90;;;;;;8352095;28;19921;-68
2022/07/24 09:55:24;;;;;;;;;;;23.50;99.90;;;;;;8352224;28;20394;-68
2022/07/24 09:59:27;;;;;;;;;;;23.60;99.90;;;;;;8351940;28;19928;-68
2022/07/24 10:03:30;;;;;;;;;;;23.70;99.90;;;;;;8353475;28;19931;-68
2022/07/24 10:07:32;;;;;;;;;;;23.80;99.90;;;;;;8351741;28;19951;-68
2022/07/24 10:11:34;;;;;;;;;;;23.80;99.90;;;;;;8352416;28;19925;-68
2022/07/24 10:15:39;;;;;;;;;;;23.90;99.90;;;;;;8354277;28;19944;-67
2022/07/24 10:19:44;;;;;;;;;;;24.00;99.90;;;;;;8352290;28;19925;-68
2022/07/24 10:23:58;;;;;;;;;;;24.00;99.90;;;;;;8351991;28;19921;-68
2022/07/24 10:28:01;;;;;;;;;;;24.10;99.90;;;;;;8350650;28;19924;-68
2022/07/24 10:32:03;;;;;;;;;;;24.20;99.90;;;;;;8351277;28;20283;-68
2022/07/24 10:36:14;;;;;;;;;;;24.30;99.90;;;;;;8353666;28;19920;-68
2022/07/24 10:40:33;;;;;;;;;;;24.40;99.90;;;;;;8356550;28;19982;-68
2022/07/24 10:44:36;;;;;;;;;;;24.50;99.90;;;;;;8359132;28;20011;-68
2022/07/24 10:48:39;;;;;;;;;;;24.60;99.90;;;;;;8357688;28;19921;-68
2022/07/24 10:52:41;;;;;;;;;;;24.70;99.90;;;;;;8372733;28;19925;-68
2022/07/24 10:56:49;;;;;;;;;;;24.80;99.90;;;;;;8356998;28;19925;-68
2022/07/24 11:00:51;;;;;;;;;;;24.80;99.90;;;;;;8356848;28;19939;-68
2022/07/24 11:05:22;;;;;;;;;;;24.90;99.90;;;;;;8357531;28;19932;-68
2022/07/24 11:09:25;;;;;;;;;;;25.00;99.90;;;;;;8373719;28;20315;-68
2022/07/24 11:13:32;;;;;;;;;;;25.00;99.90;;;;;;8361329;28;20257;-68
2022/07/24 11:17:36;;;;;;;;;;;25.10;99.90;;;;;;8357472;28;19932;-68
2022/07/24 11:21:42;;;;;;;;;;;25.20;99.90;;;;;;8356641;28;19921;-68
2022/07/24 11:25:43;;;;;;;;;;;25.20;99.90;;;;;;8374297;28;19921;-68
2022/07/24 11:29:45;;;;;;;;;;;25.30;99.90;;;;;;8355593;28;19920;-68
2022/07/24 11:33:47;;;;;;;;;;;25.40;99.90;;;;;;8356152;28;19924;-68
2022/07/24 11:37:50;;;;;;;;;;;25.50;99.90;;;;;;8355362;28;19927;-68
2022/07/24 11:41:53;;;;;;;;;;;25.60;99.90;;;;;;8356434;28;19956;-68
2022/07/24 11:45:55;;;;;;;;;;;25.80;99.90;;;;;;8357996;28;19928;-68
2022/07/24 11:49:59;;;;;;;;;;;25.80;99.90;;;;;;8357618;28;19921;-68
2022/07/24 11:54:02;;;;;;;;;;;25.90;99.90;;;;;;8357097;28;19928;-68
2022/07/24 11:58:04;;;;;;;;;;;26.00;99.90;;;;;;8355231;28;19929;-68
2022/07/24 12:02:26;;;;;;;;;;;26.00;99.90;;;;;;8354869;28;19956;-68
2022/07/24 12:06:28;;;;;;;;;;;26.10;99.90;;;;;;8355250;28;19970;-68
2022/07/24 12:10:32;;;;;;;;;;;26.10;99.90;;;;;;8355535;28;24088;-68
2022/07/24 12:14:33;;;;;;;;;;;26.20;99.90;;;;;;8355772;28;19921;-68
2022/07/24 12:18:35;;;;;;;;;;;26.20;99.90;;;;;;8354147;28;19921;-68
2022/07/24 12:22:37;;;;;;;;;;;26.30;99.90;;;;;;8370731;28;19921;-66
2022/07/24 12:26:48;;;;;;;;;;;26.30;99.90;;;;;;8355119;28;20403;-66
2022/07/24 12:30:54;;;;;;;;;;;26.40;99.90;;;;;;8355313;28;19921;-66
2022/07/24 12:34:55;;;;;;;;;;;26.50;99.90;;;;;;8355259;28;19971;-65
2022/07/24 12:39:15;;;;;;;;;;;26.50;99.90;;;;;;8354192;28;19999;-66
2022/07/24 12:43:17;;;;;;;;;;;26.60;99.90;;;;;;8354465;28;19932;-66
2022/07/24 12:47:18;;;;;;;;;;;26.60;99.90;;;;;;8355588;28;19995;-66
2022/07/24 12:51:20;;;;;;;;;;;26.60;99.90;;;;;;8354576;28;19921;-66
2022/07/24 12:55:22;;;;;;;;;;;26.80;99.90;;;;;;8370809;28;19928;-66
2022/07/24 12:59:26;;;;;;;;;;;26.80;99.90;;;;;;8368839;28;19943;-66
2022/07/24 13:03:28;;;;;;;;;;;26.80;99.90;;;;;;8353463;28;19928;-66
2022/07/24 13:07:30;;;;;;;;;;;26.90;99.90;;;;;;8354514;28;20295;-66
2022/07/24 13:11:31;;;;;;;;;;;26.90;99.90;;;;;;8352708;28;19921;-66
2022/07/24 13:15:33;;;;;;;;;;;27.00;99.90;;;;;;8353937;28;19959;-66
2022/07/24 13:19:38;;;;;;;;;;;27.00;99.90;;;;;;8351803;28;19925;-66
2022/07/24 13:23:40;;;;;;;;;;;27.10;99.90;;;;;;8354374;28;20379;-66
2022/07/24 13:27:42;;;;;;;;;;;27.10;99.90;;;;;;8353995;28;20368;-66
2022/07/24 13:32:04;;;;;;;3.30;1.70;;;27.30;99.90;;;;;;8353116;28;20007;-66
2022/07/24 13:36:06;;;;;;;3.85;2.20;;;27.30;99.90;;;;;;8351625;28;20052;-65
2022/07/24 13:40:12;;;;;;;3.63;2.08;;;27.40;99.90;;;;;;8352281;28;20045;-66
2022/07/24 13:44:13;;;;;;;;;;;27.40;99.90;;;;;;8353116;28;20214;-66
2022/07/24 13:48:15;;;;;;;;;;;27.50;99.90;;;;;;8351782;28;20240;-66
2022/07/24 13:52:16;;;;;;;;;;;27.50;99.90;;;;;;8351767;28;19943;-66
2022/07/24 13:56:18;;;;;;;;;;;27.60;99.90;;;;;;8370028;28;20303;-66
2022/07/24 14:00:20;;;;;;;;;;;27.60;99.90;;;;;;8352805;28;20275;-66
2022/07/24 14:04:23;;;;;;;;;;;27.60;99.90;;;;;;8352032;28;20465;-66
2022/07/24 14:08:28;;;;;;;;;;;27.60;99.90;;;;;;8367394;28;19921;-66
2022/07/24 14:12:29;;;;;;;;;;;27.60;99.90;;;;;;8350613;28;19925;-66
2022/07/24 14:16:31;;;;;;;;;;;27.70;99.90;;;;;;8352512;28;19920;-66
2022/07/24 14:20:33;;;;;;;;;;;27.80;99.90;;;;;;8351869;28;19936;-66
2022/07/24 14:24:35;;;;;;;;;;;27.90;99.90;;;;;;8352252;28;19925;-66
2022/07/24 14:28:40;;;;;;;;;;;28.00;99.90;;;;;;8352199;28;20012;-66
2022/07/24 14:32:41;;;;;;;;;;;28.00;99.90;;;;;;8352676;28;19928;-66
2022/07/24 14:36:43;;;;;;;;;;;28.10;99.90;;;;;;8350741;28;20295;-66
2022/07/24 14:40:45;;;;;;;;;;;28.20;99.90;;;;;;8351668;28;19940;-66
2022/07/24 14:44:46;;;;;;;;;;;28.30;99.90;;;;;;8351747;28;19921;-66
2022/07/24 14:48:48;;;;;;;;;;;28.40;99.90;;;;;;8350623;28;19974;-66
2022/07/24 14:52:50;;;;;;;;;;;28.50;99.90;;;;;;8354141;28;19921;-66
2022/07/24 14:56:52;;;;;;;;;;;28.60;99.90;;;;;;8354480;28;19943;-66
2022/07/24 15:00:54;;;;;;;;;;;28.70;99.90;;;;;;8367911;28;19947;-66
2022/07/24 15:04:56;;;;;;;;;;;28.80;99.90;;;;;;8354510;28;19982;-66
2022/07/24 15:08:57;;;;;;;;;;;28.70;99.90;;;;;;8349859;28;19928;-66
2022/07/24 15:12:59;;;;;;;;;;;28.70;99.90;;;;;;8350225;28;19925;-66
2022/07/24 15:17:01;;;;;;;;;;;28.70;99.90;;;;;;8352534;28;20360;-66
2022/07/24 15:21:02;;;;;;;;;;;28.70;99.90;;;;;;8366490;28;20581;-66
2022/07/24 15:25:04;;;;;;;;;;;28.80;99.90;;;;;;8353698;28;19925;-66
2022/07/24 15:29:06;;;;;;;;;;;28.90;99.90;;;;;;8357771;28;19928;-66
2022/07/24 15:33:08;;;;;;;;;;;29.00;99.90;;;;;;8355499;28;19955;-66
2022/07/24 15:37:09;;;;;;;;;;;29.10;99.90;;;;;;8355110;28;19928;-66
2022/07/24 15:41:11;;;;;;;;;;;29.10;99.90;;;;;;8370579;28;25059;-66
2022/07/24 15:45:13;;;;;;;;;;;29.20;99.90;;;;;;8355873;28;19921;-66
2022/07/24 15:49:15;;;;;;;;;;;29.20;99.90;;;;;;8356570;28;19920;-66
2022/07/24 15:53:17;;;;;;;;;;;29.20;99.90;;;;;;8357390;28;19924;-66
2022/07/24 15:57:18;;;;;;;;;;;29.30;99.90;;;;;;8356025;28;19921;-66
2022/07/24 16:01:20;;;;;;;;;;;29.40;99.90;;;;;;8357493;28;19921;-66
2022/07/24 16:05:42;;;;;;;;;;;29.40;99.90;;;;;;8356859;28;19975;-66
2022/07/24 16:09:43;;;;;;;;;;;29.40;99.90;;;;;;8355910;28;20320;-66
2022/07/24 16:13:45;;;;;;;;;;;29.80;99.90;;;;;;8355647;28;20288;-66
2022/07/24 16:17:46;;;;;;;3.08;1.58;;;30.10;99.90;;;;;;8354467;28;24131;-66
2022/07/24 16:21:48;;;;;;;3.20;1.60;;;30.50;99.90;;;;;;8354647;28;20045;-66
2022/07/24 16:25:50;;;;;;;;;;;30.90;99.90;;;;;;8354966;28;20044;-66
2022/07/24 16:29:51;;;;;;;;;;;31.30;99.90;;;;;;8355203;28;20407;-66
2022/07/24 16:33:53;;;;;;;;;;;31.70;99.90;;;;;;8354076;28;19979;-66
2022/07/24 16:37:55;;;;;;;;;;;32.00;99.90;;;;;;8353449;28;19925;-66
2022/07/24 16:41:56;;;;;;;;;;;31.80;99.90;;;;;;8352931;28;20304;-66
2022/07/24 16:45:59;;;;;;;;;;;31.40;99.90;;;;;;8354494;28;20281;-66
2022/07/24 16:50:01;;;;;;;;;;;30.90;99.90;;;;;;8355978;28;19978;-66
2022/07/24 16:54:02;;;;;;;;;;;30.60;99.90;;;;;;8352728;28;19951;-66
2022/07/24 16:58:05;;;;;;;;;;;30.50;99.90;;;;;;8354506;28;19960;-66
2022/07/24 17:02:07;;;;;;;;;;;30.60;99.90;;;;;;8370408;28;19927;-66
2022/07/24 17:06:09;;;;;;;;;;;30.70;99.90;;;;;;8353559;28;20019;-66
2022/07/24 17:10:10;;;;;;;;;;;30.70;99.90;;;;;;8354343;28;19920;-66
2022/07/24 17:14:12;;;;;;;;;;;30.80;99.90;;;;;;8353339;28;19927;-66
2022/07/24 17:18:14;;;;;;;;;;;30.90;99.90;;;;;;8351528;28;19921;-66
2022/07/24 17:22:18;;;;;;;;;;;31.00;99.90;;;;;;8353083;28;19920;-66
2022/07/24 17:26:19;;;;;;;;;;;31.10;99.90;;;;;;8353329;28;19948;-66
2022/07/24 17:30:22;;;;;;;;;;;31.00;99.90;;;;;;8353030;28;19924;-66
2022/07/24 17:34:24;;;;;;;;;;;30.90;99.90;;;;;;8352710;28;20299;-66
2022/07/24 17:38:25;;;;;;;;;;;30.90;99.90;;;;;;8351779;28;20292;-66
2022/07/24 17:42:27;;;;;;;;;;;30.70;99.90;;;;;;8351569;28;24072;-66
2022/07/24 17:46:29;;;;;;;;;;;30.60;99.90;;;;;;8354165;28;19920;-66
2022/07/24 17:50:31;;;;;;;;;;;30.50;99.90;;;;;;8352880;28;20410;-66
2022/07/24 17:54:34;;;;;;;;;;;30.40;99.90;;;;;;8352901;28;20225;-66
2022/07/24 17:58:36;;;;;;;;;;;30.20;99.90;;;;;;8352020;28;25154;-66
2022/07/24 18:02:38;;;;;;;;;;;30.20;99.90;;;;;;8368095;28;20328;-66
2022/07/24 18:06:40;;;;;;;;;;;30.10;99.90;;;;;;8351767;28;20360;-66
2022/07/24 18:10:42;;;;;;;;;;;30.10;99.90;;;;;;8351723;28;20414;-66
2022/07/24 18:14:43;;;;;;;;;;;30.00;99.90;;;;;;8366786;28;20272;-66
2022/07/24 18:18:45;;;;;;;;;;;30.00;99.90;;;;;;8350593;28;24152;-66
2022/07/24 18:22:47;;;;;;;;;;;30.00;99.90;;;;;;8352207;28;20183;-66
2022/07/24 18:26:48;;;;;;;;;;;29.90;99.90;;;;;;8353255;28;20336;-66
2022/07/24 18:30:50;;;;;;;;;;;29.90;99.90;;;;;;8351588;28;19920;-66
2022/07/24 18:34:52;;;;;;;;;;;29.80;99.90;;;;;;8368912;28;20325;-66
2022/07/24 18:38:53;;;;;;;;;;;29.80;99.90;;;;;;8350040;28;19928;-66
2022/07/24 18:42:55;;;;;;;;;;;29.80;99.90;;;;;;8351217;28;19925;-66
2022/07/24 18:46:57;;;;;;;;;;;29.70;99.90;;;;;;8352062;28;19932;-66
2022/07/24 18:50:59;;;;;;;;;;;29.60;99.90;;;;;;8351140;28;20295;-66
2022/07/24 19:05:08;;;;;;;;;;;29.40;99.90;;;;;;8359446;28;20019;-66
2022/07/24 19:09:10;;;;;;;;;;;29.30;99.90;;;;;;8358419;28;19927;-66
2022/07/24 19:13:12;;;;;;;;;;;29.20;99.90;;;;;;8356146;28;20361;-66
2022/07/24 19:17:18;;;;;;;;;;;29.10;99.90;;;;;;8358378;28;19927;-66
2022/07/24 19:21:20;;;;;;;;;;;29.00;99.90;;;;;;8357067;28;19967;-66
2022/07/24 19:25:22;;;;;;;;;;;28.90;99.90;;;;;;8358260;28;19921;-66
2022/07/24 19:29:23;;;;;;;;;;;28.80;99.90;;;;;;8357466;28;20113;-66
2022/07/24 19:33:25;;;;;;;;;;;28.70;99.90;;;;;;8356514;28;19943;-66
2022/07/24 19:37:27;;;;;;;;;;;28.60;99.90;;;;;;8356375;28;20034;-66
2022/07/24 19:41:29;;;;;;;;;;;28.50;99.90;;;;;;8356538;28;20347;-66
2022/07/24 19:45:30;;;;;;;;;;;28.40;99.90;;;;;;8357203;28;19925;-66
2022/07/24 19:49:32;;;;;;;;;;;28.30;99.90;;;;;;8374287;28;19925;-66
2022/07/24 19:53:34;;;;;;;;;;;28.10;99.90;;;;;;8356820;28;19924;-66
2022/07/24 19:57:35;;;;;;;;;;;28.00;99.90;;;;;;8355645;28;19937;-66
2022/07/24 20:01:37;;;;;;;;;;;27.80;99.90;;;;;;8357445;28;19920;-66
2022/07/24 20:05:39;;;;;;;;;;;27.70;99.90;;;;;;8356730;28;19947;-66
2022/07/24 20:09:40;;;;;;;;;;;27.60;99.90;;;;;;8355334;28;20136;-66
2022/07/24 20:13:42;;;;;;;;;;;27.50;99.90;;;;;;8353808;28;20356;-66
2022/07/24 20:17:44;;;;;;;;;;;27.30;99.90;;;;;;8354431;28;20360;-66
2022/07/24 20:21:46;;;;;;;;;;;27.20;99.90;;;;;;8353989;28;19931;-66
2022/07/24 20:25:48;;;;;;;;;;;27.10;99.90;;;;;;8354178;28;19928;-66
2022/07/24 20:29:49;;;;;;;;;;;27.10;99.90;;;;;;8355105;28;20359;-66
2022/07/24 20:33:51;;;;;;;;;;;26.90;99.90;;;;;;8355158;28;20392;-66
2022/07/24 20:37:53;;;;;;;;;;;26.80;99.90;;;;;;8353622;28;19925;-66
2022/07/24 20:41:54;;;;;;;;;;;26.80;99.90;;;;;;8370332;28;19943;-66
2022/07/24 20:45:56;;;;;;;;;;;26.70;99.90;;;;;;8355294;28;20327;-66
2022/07/24 20:49:58;;;;;;;;;;;26.50;99.90;;;;;;8370107;28;20394;-66
2022/07/24 20:54:00;;;;;;;;;;;26.50;99.90;;;;;;8354616;28;19925;-66
2022/07/24 20:58:02;;;;;;;;;;;26.40;99.90;;;;;;8353373;28;19924;-66
2022/07/24 21:02:04;;;;;;;;;;;26.30;99.90;;;;;;8359310;28;19921;-66
2022/07/24 21:06:05;;;;;;;;;;;26.20;99.90;;;;;;8377689;28;20314;-66
2022/07/24 21:10:07;;;;;;;;;;;26.20;99.90;;;;;;8382505;28;19924;-66
2022/07/24 21:14:09;;;;;;;;;;;26.10;99.90;;;;;;8380844;28;20253;-66
2022/07/24 21:18:11;;;;;;;;;;;26.00;99.90;;;;;;8387058;28;20322;-66
2022/07/24 21:22:12;;;;;;;;;;;26.00;99.90;;;;;;8371319;28;19928;-66
2022/07/24 21:26:14;;;;;;;;;;;25.90;99.90;;;;;;8389541;28;19947;-66
2022/07/24 21:30:15;;;;;;;;;;;25.80;99.90;;;;;;8393240;28;19921;-66
2022/07/24 21:34:17;;;;;;;;;;;25.80;99.90;;;;;;8369961;28;19920;-66
2022/07/24 21:38:19;;;;;;;;;;;25.70;99.90;;;;;;8379220;28;19967;-66
2022/07/24 21:42:20;;;;;;;;;;;25.60;99.90;;;;;;8392063;28;19927;-66
2022/07/24 21:46:22;;;;;;;;;;;25.60;99.90;;;;;;8386548;28;20368;-66
2022/07/24 21:50:24;;;;;;;;;;;25.60;99.90;;;;;;8378066;28;19921;-66
2022/07/24 21:54:26;;;;;;;;;;;25.50;99.90;;;;;;8388380;28;20375;-66
2022/07/24 21:58:27;;;;;;;;;;;25.50;99.90;;;;;;8384648;28;20209;-66
2022/07/24 22:02:29;;;;;;;;;;;25.40;99.90;;;;;;8385658;28;19936;-66
2022/07/24 22:06:31;;;;;;;;;;;25.40;99.90;;;;;;8389007;28;19971;-66
2022/07/24 22:10:32;;;;;;;;;;;25.30;99.90;;;;;;8388866;28;20489;-66
2022/07/24 22:14:34;;;;;;;;;;;25.20;99.90;;;;;;8369292;28;20316;-66
2022/07/24 22:18:36;;;;;;;;;;;25.10;99.90;;;;;;8380129;28;20279;-66
2022/07/24 22:22:37;;;;;;;;;;;25.10;99.90;;;;;;8379421;28;19929;-66
2022/07/24 22:37:13;;;;;;;;;;;25.10;99.90;;;;;;8377382;28;19919;-66
2022/07/24 22:41:15;;;;;;;;;;;25.00;99.90;;;;;;8387095;28;20351;-66
2022/07/24 22:45:17;;;;;;;;;;;24.90;99.90;;;;;;8392047;28;19990;-66
2022/07/24 22:49:21;;;;;;;;;;;24.80;99.90;;;;;;8396219;28;19927;-66
2022/07/24 22:53:23;;;;;;;;;;;24.80;99.90;;;;;;8397500;28;19924;-66
2022/07/24 22:57:26;;;;;;;;;;;24.70;99.90;;;;;;8387327;28;19928;-66
2022/07/24 23:01:28;;;;;;;;;;;24.60;99.90;;;;;;8388332;28;19966;-66
2022/07/24 23:05:29;;;;;;;;;;;24.60;99.90;;;;;;8390984;28;20145;-66
2022/07/24 23:09:31;;;;;;;;;;;24.50;99.90;;;;;;8420225;28;19927;-66
2022/07/24 23:13:33;;;;;;;;;;;24.50;99.90;;;;;;8386971;28;19927;-66
2022/07/24 23:17:34;;;;;;;;;;;24.50;99.90;;;;;;8392401;28;19924;-66
2022/07/24 23:21:36;;;;;;;;;;;24.40;99.90;;;;;;8379708;28;19936;-66
2022/07/24 23:25:38;;;;;;;;;;;24.30;99.90;;;;;;8397966;28;19928;-66
2022/07/24 23:29:39;;;;;;;;;;;24.30;99.90;;;;;;8386090;28;19920;-66
2022/07/24 23:33:41;;;;;;;;;;;24.20;99.90;;;;;;8393507;28;20744;-66
2022/07/24 23:37:43;;;;;;;;;;;24.20;99.90;;;;;;8379911;28;20011;-66
2022/07/24 23:41:44;;;;;;;;;;;24.10;99.90;;;;;;8389369;28;19927;-66
2022/07/24 23:45:46;;;;;;;;;;;24.10;99.90;;;;;;8395656;28;19920;-66
2022/07/24 23:49:48;;;;;;;;;;;24.00;99.90;;;;;;8397221;28;19920;-66
2022/07/24 23:53:49;;;;;;;;;;;24.00;99.90;;;;;;8381421;28;19920;-66
2022/07/24 23:57:51;;;;;;;;;;;24.00;99.90;;;;;;8411885;28;19920;-66
